PWSweather.com
Personal Weather Stations
Station Observations
SHAHALMS1
Eftra, Falkenberg, HA

EftraFalkenberg, HA

Lat: 56.85, Lon: 12.65

Elevation: 140

Station Type:

http://hem.passagen.se/risarp101

High Low Average
Temperature 58.5°F14.7°C 49.3°F9.6°C 52.0°F11.1°C
Dew Point 51.4°F10.8°C 45.5°F7.5°C 47.6°F8.7°C
Winds 8.5 mph 13.7 kmh Calm Calm 3.0 mph SW4.8 kmh SW
Wind Gusts 17.5 mph28.2 kmh -- 7.0 mph11.3 kmh
Humidity 92% 68% 85%
Pressure 29.92 in1013.2 mb 29.74 in1007.1 mb -
Precipitation 0.39 in9.9 mm - -
Hour Temp Dew Point Humidity Winds Wind Gusts Pressure Precip Precip Rate Daily Precip Total
12:00 AM 58.5°F14.7°C 47.9°F8.8°C 68% 0.2 mph S0.3 kmh S 3.2 mph5.1 kmh 29.83 in1010.2 mb 0.00 in0.0 mm 0.00 in0.0 mm 0.00 in0.0 mm
12:15 AM 58.1°F14.5°C 47.6°F8.7°C 68% 0.3 mph S0.5 kmh S 5.0 mph8.0 kmh 29.83 in1010.2 mb 0.00 in0.0 mm 0.00 in0.0 mm 0.00 in0.0 mm
12:30 AM 57.4°F14.1°C 47.3°F8.5°C 69% Calm Calm -- 29.83 in1010.2 mb 0.00 in0.0 mm 0.00 in0.0 mm 0.00 in0.0 mm
12:45 AM 56.8°F13.8°C 46.8°F8.2°C 69% 0.5 mph SW0.8 kmh SW 4.7 mph7.6 kmh 29.83 in1010.2 mb 0.00 in0.0 mm 0.00 in0.0 mm 0.00 in0.0 mm
01:00 AM 56.1°F13.4°C 46.5°F8.1°C 70% Calm Calm -- 29.83 in1010.2 mb 0.00 in0.0 mm 0.00 in0.0 mm 0.00 in0.0 mm
01:15 AM 55.4°F13.0°C 46.2°F7.9°C 71% Calm Calm -- 29.83 in1010.2 mb 0.00 in0.0 mm 0.00 in0.0 mm 0.00 in0.0 mm
01:30 AM 54.7°F12.6°C 45.8°F7.7°C 72% Calm Calm -- 29.80 in1009.1 mb 0.00 in0.0 mm 0.00 in0.0 mm 0.00 in0.0 mm
01:45 AM 54.0°F12.2°C 45.5°F7.5°C 73% Calm Calm -- 29.83 in1010.2 mb 0.00 in0.0 mm 0.00 in0.0 mm 0.00 in0.0 mm
02:00 AM 53.8°F12.1°C 45.7°F7.6°C 74% Calm Calm -- 29.80 in1009.1 mb 0.00 in0.0 mm 0.00 in0.0 mm 0.00 in0.0 mm
02:15 AM 53.6°F12.0°C 45.9°F7.7°C 75% Calm Calm -- 29.80 in1009.1 mb 0.00 in0.0 mm 0.00 in0.0 mm 0.00 in0.0 mm
02:30 AM 53.2°F11.8°C 45.9°F7.7°C 76% Calm Calm -- 29.80 in1009.1 mb 0.00 in0.0 mm 0.00 in0.0 mm 0.00 in0.0 mm
02:45 AM 53.4°F11.9°C 46.4°F8.0°C 77% 0.3 mph E0.5 kmh E 3.9 mph6.3 kmh 29.80 in1009.1 mb 0.00 in0.0 mm 0.00 in0.0 mm 0.00 in0.0 mm
03:01 AM 53.6°F12.0°C 46.9°F8.3°C 78% 0.1 mph E0.2 kmh E 3.9 mph6.3 kmh 29.77 in1008.1 mb 0.00 in0.0 mm 0.00 in0.0 mm 0.00 in0.0 mm
03:15 AM 53.2°F11.8°C 46.9°F8.3°C 79% Calm Calm -- 29.74 in1007.1 mb 0.00 in0.0 mm 0.00 in0.0 mm 0.00 in0.0 mm
03:30 AM 52.9°F11.6°C 46.5°F8.1°C 79% 0.8 mph ESE1.3 kmh ESE 6.8 mph10.9 kmh 29.77 in1008.1 mb 0.00 in0.0 mm 0.00 in0.0 mm 0.00 in0.0 mm
03:45 AM 52.7°F11.5°C 46.7°F8.2°C 80% 0.5 mph SE0.8 kmh SE 4.3 mph6.9 kmh 29.74 in1007.1 mb 0.00 in0.0 mm 0.00 in0.0 mm 0.00 in0.0 mm
04:00 AM 52.5°F11.4°C 46.5°F8.1°C 80% 0.5 mph ESE0.8 kmh ESE 6.8 mph10.9 kmh 29.74 in1007.1 mb 0.00 in0.0 mm 0.00 in0.0 mm 0.00 in0.0 mm
04:15 AM 52.7°F11.5°C 47.0°F8.3°C 81% 0.4 mph ESE0.6 kmh ESE 6.8 mph10.9 kmh 29.77 in1008.1 mb 0.00 in0.0 mm 0.00 in0.0 mm 0.00 in0.0 mm
04:30 AM 52.9°F11.6°C 47.5°F8.6°C 82% 0.7 mph SE1.1 kmh SE 6.1 mph9.8 kmh 29.77 in1008.1 mb 0.00 in0.0 mm 0.00 in0.0 mm 0.00 in0.0 mm
04:45 AM 53.1°F11.7°C 47.7°F8.7°C 82% Calm Calm 2.5 mph4.0 kmh 29.77 in1008.1 mb 0.00 in0.0 mm 0.00 in0.0 mm 0.00 in0.0 mm
05:00 AM 52.9°F11.6°C 47.2°F8.4°C 81% 0.3 mph SW0.5 kmh SW 6.1 mph9.8 kmh 29.74 in1007.1 mb 0.00 in0.0 mm 0.00 in0.0 mm 0.00 in0.0 mm
05:15 AM 52.7°F11.5°C 47.4°F8.6°C 82% 2.7 mph W4.3 kmh W 6.8 mph10.9 kmh 29.74 in1007.1 mb 0.00 in0.0 mm 0.00 in0.0 mm 0.00 in0.0 mm
05:30 AM 52.7°F11.5°C 47.7°F8.7°C 83% 0.8 mph W1.3 kmh W 6.1 mph9.8 kmh 29.74 in1007.1 mb 0.00 in0.0 mm 0.00 in0.0 mm 0.00 in0.0 mm
05:45 AM 52.7°F11.5°C 47.7°F8.7°C 83% 0.4 mph W0.6 kmh W 4.3 mph6.9 kmh 29.77 in1008.1 mb 0.00 in0.0 mm 0.00 in0.0 mm 0.00 in0.0 mm
06:00 AM 52.9°F11.6°C 47.9°F8.8°C 83% Calm Calm -- 29.77 in1008.1 mb 0.00 in0.0 mm 0.00 in0.0 mm 0.00 in0.0 mm
06:15 AM 53.2°F11.8°C 48.5°F9.2°C 84% Calm Calm -- 29.74 in1007.1 mb 0.00 in0.0 mm 0.00 in0.0 mm 0.00 in0.0 mm
06:30 AM 53.8°F12.1°C 49.1°F9.5°C 84% 0.1 mph SE0.2 kmh SE 1.8 mph2.9 kmh 29.74 in1007.1 mb 0.00 in0.0 mm 0.00 in0.0 mm 0.00 in0.0 mm
06:45 AM 54.1°F12.3°C 49.4°F9.7°C 84% 0.2 mph E0.3 kmh E 3.9 mph6.3 kmh 29.74 in1007.1 mb 0.00 in0.0 mm 0.00 in0.0 mm 0.00 in0.0 mm
07:00 AM 54.3°F12.4°C 49.6°F9.8°C 84% 0.1 mph SE0.2 kmh SE 1.8 mph2.9 kmh 29.77 in1008.1 mb 0.00 in0.0 mm 0.00 in0.0 mm 0.00 in0.0 mm
07:15 AM 55.0°F12.8°C 50.3°F10.2°C 84% Calm Calm -- 29.77 in1008.1 mb 0.00 in0.0 mm 0.00 in0.0 mm 0.00 in0.0 mm
07:30 AM 54.9°F12.7°C 49.8°F9.9°C 83% Calm Calm -- 29.77 in1008.1 mb 0.00 in0.0 mm 0.00 in0.0 mm 0.00 in0.0 mm
07:45 AM 55.0°F12.8°C 50.0°F10.0°C 83% Calm Calm -- 29.77 in1008.1 mb 0.00 in0.0 mm 0.00 in0.0 mm 0.00 in0.0 mm
08:00 AM 56.3°F13.5°C 51.2°F10.7°C 83% 1.2 mph SSW1.9 kmh SSW 6.1 mph9.8 kmh 29.77 in1008.1 mb 0.00 in0.0 mm 0.00 in0.0 mm 0.00 in0.0 mm
08:15 AM 56.8°F13.8°C 51.4°F10.8°C 82% 5.2 mph SSW8.4 kmh SSW 10.0 mph16.1 kmh 29.77 in1008.1 mb 0.00 in0.0 mm 0.00 in0.0 mm 0.00 in0.0 mm
08:30 AM 55.6°F13.1°C 49.8°F9.9°C 81% 6.0 mph SW9.7 kmh SW 12.5 mph20.1 kmh 29.77 in1008.1 mb 0.00 in0.0 mm 0.00 in0.0 mm 0.00 in0.0 mm
08:45 AM 54.7°F12.6°C 49.0°F9.4°C 81% 4.0 mph WSW6.4 kmh WSW 9.3 mph15.0 kmh 29.77 in1008.1 mb 0.00 in0.0 mm 0.00 in0.0 mm 0.00 in0.0 mm
09:00 AM 54.0°F12.2°C 48.6°F9.2°C 82% 2.9 mph W4.7 kmh W 8.9 mph14.3 kmh 29.77 in1008.1 mb 0.00 in0.0 mm 0.00 in0.0 mm 0.00 in0.0 mm
09:15 AM 53.2°F11.8°C 48.2°F9.0°C 83% 2.3 mph W3.7 kmh W 9.3 mph15.0 kmh 29.77 in1008.1 mb 0.00 in0.0 mm 0.00 in0.0 mm 0.00 in0.0 mm
09:30 AM 52.7°F11.5°C 48.0°F8.9°C 84% 3.2 mph W5.1 kmh W 9.7 mph15.6 kmh 29.80 in1009.1 mb 0.00 in0.0 mm 0.00 in0.0 mm 0.00 in0.0 mm
09:45 AM 52.3°F11.3°C 48.0°F8.9°C 85% 4.4 mph W7.1 kmh W 11.5 mph18.5 kmh 29.80 in1009.1 mb 0.00 in0.0 mm 0.00 in0.0 mm 0.00 in0.0 mm
10:00 AM 51.6°F10.9°C 47.3°F8.5°C 85% 5.6 mph W9.0 kmh W 11.5 mph18.5 kmh 29.80 in1009.1 mb 0.06 in1.5 mm 0.08 in2.0 mm 0.06 in1.5 mm
10:15 AM 51.3°F10.7°C 47.2°F8.4°C 86% 5.2 mph WNW8.4 kmh WNW 12.9 mph20.8 kmh 29.80 in1009.1 mb 0.10 in2.5 mm 0.16 in4.1 mm 0.10 in2.5 mm
10:30 AM 51.3°F10.7°C 47.5°F8.6°C 87% 4.6 mph WNW7.4 kmh WNW 15.7 mph25.3 kmh 29.80 in1009.1 mb 0.15 in3.8 mm 0.20 in5.1 mm 0.15 in3.8 mm
10:45 AM 51.6°F10.9°C 48.2°F9.0°C 88% 4.5 mph NW7.2 kmh NW 13.6 mph21.9 kmh 29.80 in1009.1 mb 0.15 in3.8 mm 0.00 in0.0 mm 0.15 in3.8 mm
11:10 AM 51.6°F10.9°C 48.5°F9.2°C 89% 6.4 mph W10.3 kmh W 7.9 mph12.7 kmh 29.77 in1008.1 mb 0.05 in1.3 mm 0.00 in0.0 mm 0.15 in3.8 mm
11:11 AM 51.6°F10.9°C 48.5°F9.2°C 89% 4.5 mph W7.2 kmh W 7.9 mph12.7 kmh 29.77 in1008.1 mb 0.05 in1.3 mm 0.00 in0.0 mm 0.15 in3.8 mm
11:12 AM 51.6°F10.9°C 48.5°F9.2°C 89% 4.2 mph WNW6.8 kmh WNW 7.9 mph12.7 kmh 29.77 in1008.1 mb 0.05 in1.3 mm 0.00 in0.0 mm 0.15 in3.8 mm
11:13 AM 51.6°F10.9°C 48.5°F9.2°C 89% 5.0 mph W8.0 kmh W 9.3 mph15.0 kmh 29.77 in1008.1 mb 0.05 in1.3 mm 0.00 in0.0 mm 0.15 in3.8 mm
11:15 AM 51.6°F10.9°C 48.5°F9.2°C 89% 5.9 mph W9.5 kmh W 13.6 mph21.9 kmh 29.80 in1009.1 mb 0.05 in1.3 mm 0.00 in0.0 mm 0.15 in3.8 mm
11:30 AM 51.4°F10.8°C 48.3°F9.1°C 89% 5.0 mph W8.0 kmh W 12.2 mph19.6 kmh 29.80 in1009.1 mb 0.00 in0.0 mm 0.00 in0.0 mm 0.15 in3.8 mm
11:45 AM 51.1°F10.6°C 47.6°F8.7°C 88% 4.2 mph NW6.8 kmh NW 10.0 mph16.1 kmh 29.80 in1009.1 mb 0.05 in1.3 mm 0.20 in5.1 mm 0.20 in5.1 mm
12:00 PM 50.7°F10.4°C 47.6°F8.7°C 89% 4.7 mph WNW7.6 kmh WNW 12.5 mph20.1 kmh 29.80 in1009.1 mb 0.05 in1.3 mm 0.00 in0.0 mm 0.20 in5.1 mm
12:15 PM 50.9°F10.5°C 47.8°F8.8°C 89% 4.7 mph WNW7.6 kmh WNW 10.4 mph16.7 kmh 29.80 in1009.1 mb 0.09 in2.3 mm 0.16 in4.1 mm 0.24 in6.1 mm
12:30 PM 51.3°F10.7°C 48.4°F9.1°C 90% 4.8 mph WNW7.7 kmh WNW 12.2 mph19.6 kmh 29.80 in1009.1 mb 0.15 in3.8 mm 0.24 in6.1 mm 0.30 in7.6 mm
12:45 PM 50.9°F10.5°C 47.8°F8.8°C 89% 5.7 mph WNW9.2 kmh WNW 17.5 mph28.2 kmh 29.80 in1009.1 mb 0.10 in2.5 mm 0.00 in0.0 mm 0.30 in7.6 mm
01:00 PM 50.7°F10.4°C 47.6°F8.7°C 89% 5.3 mph W8.5 kmh W 13.6 mph21.9 kmh 29.80 in1009.1 mb 0.10 in2.5 mm 0.00 in0.0 mm 0.30 in7.6 mm
01:15 PM 50.7°F10.4°C 47.6°F8.7°C 89% 5.9 mph WNW9.5 kmh WNW 15.4 mph24.8 kmh 29.83 in1010.2 mb 0.06 in1.5 mm 0.00 in0.0 mm 0.30 in7.6 mm
01:30 PM 50.5°F10.3°C 47.4°F8.6°C 89% 6.2 mph W10.0 kmh W 16.1 mph25.9 kmh 29.86 in1011.2 mb 0.00 in0.0 mm 0.00 in0.0 mm 0.30 in7.6 mm
01:45 PM 50.5°F10.3°C 47.7°F8.7°C 90% 4.9 mph WNW7.9 kmh WNW 10.0 mph16.1 kmh 29.83 in1010.2 mb 0.00 in0.0 mm 0.00 in0.0 mm 0.30 in7.6 mm
02:00 PM 50.7°F10.4°C 47.9°F8.8°C 90% 5.3 mph W8.5 kmh W 15.4 mph24.8 kmh 29.86 in1011.2 mb 0.00 in0.0 mm 0.00 in0.0 mm 0.30 in7.6 mm
02:15 PM 50.7°F10.4°C 47.6°F8.7°C 89% 5.2 mph WNW8.4 kmh WNW 10.4 mph16.7 kmh 29.83 in1010.2 mb 0.00 in0.0 mm 0.00 in0.0 mm 0.30 in7.6 mm
02:30 PM 50.5°F10.3°C 47.4°F8.6°C 89% 4.8 mph NW7.7 kmh NW 12.2 mph19.6 kmh 29.83 in1010.2 mb 0.00 in0.0 mm 0.00 in0.0 mm 0.30 in7.6 mm
02:45 PM 50.7°F10.4°C 47.6°F8.7°C 89% 3.8 mph NW6.1 kmh NW 9.7 mph15.6 kmh 29.80 in1009.1 mb 0.00 in0.0 mm 0.00 in0.0 mm 0.30 in7.6 mm
03:00 PM 50.7°F10.4°C 47.6°F8.7°C 89% 4.3 mph WNW6.9 kmh WNW 10.0 mph16.1 kmh 29.80 in1009.1 mb 0.00 in0.0 mm 0.00 in0.0 mm 0.30 in7.6 mm
03:15 PM 51.1°F10.6°C 48.0°F8.9°C 89% 4.3 mph WNW6.9 kmh WNW 12.5 mph20.1 kmh 29.80 in1009.1 mb 0.00 in0.0 mm 0.00 in0.0 mm 0.30 in7.6 mm
03:30 PM 51.1°F10.6°C 48.0°F8.9°C 89% 4.4 mph WNW7.1 kmh WNW 10.4 mph16.7 kmh 29.83 in1010.2 mb 0.00 in0.0 mm 0.00 in0.0 mm 0.30 in7.6 mm
03:45 PM 51.3°F10.7°C 48.1°F8.9°C 89% 5.1 mph NW8.2 kmh NW 13.6 mph21.9 kmh 29.83 in1010.2 mb 0.00 in0.0 mm 0.00 in0.0 mm 0.30 in7.6 mm
04:00 PM 52.2°F11.2°C 49.3°F9.6°C 90% 5.2 mph NW8.4 kmh NW 15.4 mph24.8 kmh 29.83 in1010.2 mb 0.00 in0.0 mm 0.00 in0.0 mm 0.30 in7.6 mm
04:15 PM 52.0°F11.1°C 48.2°F9.0°C 87% 8.5 mph NW13.7 kmh NW 14.0 mph22.5 kmh 29.86 in1011.2 mb 0.00 in0.0 mm 0.00 in0.0 mm 0.30 in7.6 mm
04:30 PM 52.0°F11.1°C 47.9°F8.8°C 86% 7.0 mph NW11.3 kmh NW 13.6 mph21.9 kmh 29.83 in1010.2 mb 0.00 in0.0 mm 0.00 in0.0 mm 0.30 in7.6 mm
04:45 PM 51.8°F11.0°C 47.7°F8.7°C 86% 5.9 mph NW9.5 kmh NW 12.5 mph20.1 kmh 29.83 in1010.2 mb 0.00 in0.0 mm 0.00 in0.0 mm 0.30 in7.6 mm
05:00 PM 51.6°F10.9°C 47.6°F8.7°C 86% 3.5 mph NW5.6 kmh NW 10.4 mph16.7 kmh 29.83 in1010.2 mb 0.00 in0.0 mm 0.00 in0.0 mm 0.30 in7.6 mm
05:15 PM 51.3°F10.7°C 47.2°F8.4°C 86% 4.2 mph NW6.8 kmh NW 10.4 mph16.7 kmh 29.83 in1010.2 mb 0.00 in0.0 mm 0.00 in0.0 mm 0.30 in7.6 mm
05:30 PM 51.1°F10.6°C 47.3°F8.5°C 87% 2.8 mph NW4.5 kmh NW 8.6 mph13.8 kmh 29.83 in1010.2 mb 0.00 in0.0 mm 0.00 in0.0 mm 0.30 in7.6 mm
05:45 PM 50.9°F10.5°C 46.9°F8.3°C 86% 2.5 mph WNW4.0 kmh WNW 9.7 mph15.6 kmh 29.83 in1010.2 mb 0.00 in0.0 mm 0.00 in0.0 mm 0.30 in7.6 mm
06:00 PM 51.1°F10.6°C 47.3°F8.5°C 87% 0.6 mph W1.0 kmh W 5.4 mph8.7 kmh 29.83 in1010.2 mb 0.00 in0.0 mm 0.00 in0.0 mm 0.30 in7.6 mm
06:15 PM 50.7°F10.4°C 46.7°F8.2°C 86% 1.9 mph NW3.1 kmh NW 6.4 mph10.3 kmh 29.86 in1011.2 mb 0.00 in0.0 mm 0.00 in0.0 mm 0.30 in7.6 mm
06:30 PM 50.4°F10.2°C 46.6°F8.1°C 87% 2.5 mph NW4.0 kmh NW 8.6 mph13.8 kmh 29.83 in1010.2 mb 0.00 in0.0 mm 0.00 in0.0 mm 0.30 in7.6 mm
06:45 PM 50.2°F10.1°C 46.5°F8.1°C 87% 1.7 mph W2.7 kmh W 5.7 mph9.2 kmh 29.86 in1011.2 mb 0.04 in1.0 mm 0.16 in4.1 mm 0.33 in8.4 mm
07:01 PM 50.0°F10.0°C 46.3°F7.9°C 87% 2.2 mph W3.5 kmh W 6.8 mph10.9 kmh 29.86 in1011.2 mb 0.04 in1.0 mm 0.00 in0.0 mm 0.33 in8.4 mm
07:15 PM 49.8°F9.9°C 46.4°F8.0°C 88% 1.6 mph W2.6 kmh W 6.4 mph10.3 kmh 29.86 in1011.2 mb 0.04 in1.0 mm 0.00 in0.0 mm 0.33 in8.4 mm
07:30 PM 49.6°F9.8°C 46.5°F8.1°C 89% 1.3 mph WNW2.1 kmh WNW 5.0 mph8.0 kmh 29.89 in1012.2 mb 0.04 in1.0 mm 0.00 in0.0 mm 0.33 in8.4 mm
07:45 PM 49.8°F9.9°C 46.7°F8.2°C 89% 0.2 mph W0.3 kmh W 3.2 mph5.1 kmh 29.89 in1012.2 mb 0.00 in0.0 mm 0.00 in0.0 mm 0.33 in8.4 mm
08:00 PM 49.8°F9.9°C 46.7°F8.2°C 89% 1.7 mph WNW2.7 kmh WNW 5.4 mph8.7 kmh 29.89 in1012.2 mb 0.06 in1.5 mm 0.08 in2.0 mm 0.39 in9.9 mm
08:15 PM 50.0°F10.0°C 47.2°F8.4°C 90% 1.8 mph E2.9 kmh E 7.2 mph11.6 kmh 29.92 in1013.2 mb 0.06 in1.5 mm 0.00 in0.0 mm 0.39 in9.9 mm
08:30 PM 49.6°F9.8°C 46.8°F8.2°C 90% 4.5 mph NW7.2 kmh NW 10.4 mph16.7 kmh 29.92 in1013.2 mb 0.06 in1.5 mm 0.00 in0.0 mm 0.39 in9.9 mm
08:45 PM 49.5°F9.7°C 46.6°F8.1°C 90% 4.9 mph NW7.9 kmh NW 11.1 mph17.9 kmh 29.86 in1011.2 mb 0.06 in1.5 mm 0.00 in0.0 mm 0.39 in9.9 mm
09:00 PM 49.3°F9.6°C 46.8°F8.2°C 91% 4.3 mph NW6.9 kmh NW 11.8 mph19.0 kmh 29.89 in1012.2 mb 0.00 in0.0 mm 0.00 in0.0 mm 0.39 in9.9 mm
09:15 PM 49.5°F9.7°C 46.9°F8.3°C 91% 2.0 mph NNW3.2 kmh NNW 6.4 mph10.3 kmh 29.89 in1012.2 mb 0.00 in0.0 mm 0.00 in0.0 mm 0.39 in9.9 mm
09:30 PM 49.3°F9.6°C 46.8°F8.2°C 91% 5.1 mph NW8.2 kmh NW 8.9 mph14.3 kmh 29.89 in1012.2 mb 0.00 in0.0 mm 0.00 in0.0 mm 0.39 in9.9 mm
09:45 PM 49.3°F9.6°C 46.8°F8.2°C 91% 1.1 mph WNW1.8 kmh WNW 4.7 mph7.6 kmh 29.89 in1012.2 mb 0.00 in0.0 mm 0.00 in0.0 mm 0.39 in9.9 mm
10:00 PM 49.3°F9.6°C 46.8°F8.2°C 91% 0.6 mph NW1.0 kmh NW 4.7 mph7.6 kmh 29.89 in1012.2 mb 0.00 in0.0 mm 0.00 in0.0 mm 0.39 in9.9 mm
10:15 PM 49.3°F9.6°C 46.8°F8.2°C 91% 0.2 mph N0.3 kmh N 3.9 mph6.3 kmh 29.89 in1012.2 mb 0.00 in0.0 mm 0.00 in0.0 mm 0.39 in9.9 mm
10:30 PM 49.3°F9.6°C 46.8°F8.2°C 91% Calm Calm -- 29.92 in1013.2 mb 0.00 in0.0 mm 0.00 in0.0 mm 0.39 in9.9 mm
10:45 PM 49.3°F9.6°C 46.8°F8.2°C 91% 4.3 mph NNW6.9 kmh NNW 8.6 mph13.8 kmh 29.89 in1012.2 mb 0.00 in0.0 mm 0.00 in0.0 mm 0.39 in9.9 mm
11:00 PM 49.3°F9.6°C 46.8°F8.2°C 91% 1.9 mph NW3.1 kmh NW 6.8 mph10.9 kmh 29.89 in1012.2 mb 0.00 in0.0 mm 0.00 in0.0 mm 0.40 in10.2 mm
11:15 PM 49.3°F9.6°C 47.1°F8.4°C 92% 0.6 mph W1.0 kmh W 5.4 mph8.7 kmh 29.86 in1011.2 mb 0.00 in0.0 mm 0.00 in0.0 mm 0.40 in10.2 mm
11:30 PM 49.3°F9.6°C 47.1°F8.4°C 92% 0.3 mph W0.5 kmh W 3.2 mph5.1 kmh 29.86 in1011.2 mb 0.00 in0.0 mm 0.00 in0.0 mm 0.40 in10.2 mm
11:45 PM 49.3°F9.6°C 47.1°F8.4°C 92% Calm Calm -- 29.89 in1012.2 mb 0.05 in1.3 mm 0.20 in5.1 mm 0.05 in1.3 mm